Time;durP1;ratioP1;P1;durP2;ratioP2;P2;SDS_P1;SDS_P2;PMS_P1;PMS_P2;Temp;Humidity;BMP_temperature;BMP_pressure;BME280_temperature;BME280_humidity;BME280_pressure;Samples;Min_cycle;Max_cycle;Signal;HPM_P1;HPM_P2
2023/07/07 00:00:15;;;;;;;1999.90;999.90;;;16.20;99.90;;;;;;6698957;88;20928;-75
2023/07/07 00:10:16;;;;;;;1999.90;999.90;;;16.00;99.90;;;;;;6700767;88;20226;-74
2023/07/07 00:20:17;;;;;;;1999.90;999.90;;;15.90;99.90;;;;;;6706387;88;20579;-74
2023/07/07 00:30:18;;;;;;;1999.90;999.90;;;15.70;99.90;;;;;;6704692;88;20177;-77
2023/07/07 00:40:19;;;;;;;1999.90;999.90;;;15.50;99.90;;;;;;6705682;88;20678;-74
2023/07/07 00:50:23;;;;;;;1999.90;999.90;;;15.30;99.90;;;;;;6699750;88;20319;-74
2023/07/07 01:00:23;;;;;;;1999.90;999.90;;;15.10;99.90;;;;;;6708340;88;20198;-74
2023/07/07 01:10:24;;;;;;;1999.90;999.90;;;15.00;99.90;;;;;;6705460;88;20206;-75
2023/07/07 01:20:33;;;;;;;1999.90;999.90;;;14.90;99.90;;;;;;6701835;88;20320;-74
2023/07/07 01:30:48;;;;;;;1999.90;999.90;;;14.70;99.90;;;;;;6703419;88;20207;-74
2023/07/07 01:40:57;;;;;;;1999.90;999.90;;;14.60;99.90;;;;;;6690691;88;21140;-74
2023/07/07 01:51:00;;;;;;;1999.90;999.90;;;14.80;99.90;;;;;;6707690;88;20189;-75
2023/07/07 02:01:02;;;;;;;1999.90;999.90;;;14.40;99.90;;;;;;6699206;88;20219;-75
2023/07/07 02:11:02;;;;;;;1999.90;999.90;;;14.20;99.90;;;;;;6711409;88;20236;-74
2023/07/07 02:21:04;;;;;;;1999.90;999.90;;;13.90;99.90;;;;;;6704072;88;20253;-74
2023/07/07 02:31:06;;;;;;;1999.90;999.90;;;13.90;99.90;;;;;;6694522;88;20187;-73
2023/07/07 02:41:06;;;;;;;1999.90;999.90;;;13.80;99.90;;;;;;6708471;88;20182;-73
2023/07/07 02:51:07;;;;;;;1999.90;999.90;;;13.70;99.90;;;;;;6708717;88;20642;-73
2023/07/07 03:01:18;;;;;;;1999.90;999.90;;;13.70;99.90;;;;;;6696594;88;20183;-72
2023/07/07 03:11:21;;;;;;;1999.90;999.90;;;13.50;99.90;;;;;;6702506;88;20196;-73
2023/07/07 03:21:22;;;;;;;1999.90;999.90;;;13.30;99.90;;;;;;6696372;88;20218;-73
2023/07/07 03:31:28;;;;;;;1999.90;999.90;;;13.20;99.90;;;;;;6694375;88;20218;-75
2023/07/07 03:41:30;;;;;;;1999.90;999.90;;;13.00;99.90;;;;;;6703952;88;20333;-75
2023/07/07 03:51:34;;;;;;;1999.90;999.90;;;12.90;99.90;;;;;;6708281;88;20257;-73
2023/07/07 04:01:35;;;;;;;1999.90;999.90;;;13.10;99.90;;;;;;6707412;88;20696;-73
2023/07/07 04:11:35;;;;;;;1999.90;999.90;;;13.20;99.90;;;;;;6695035;88;20190;-74
2023/07/07 04:32:39;;;;;;;1999.90;999.90;;;13.10;99.90;;;;;;6724370;88;20312;-80
2023/07/07 04:42:40;;;;;;;1999.90;999.90;;;13.40;99.90;;;;;;6722207;88;20306;-79
2023/07/07 04:52:40;;;;;;;1999.90;999.90;;;13.60;99.90;;;;;;6725189;88;20177;-79
2023/07/07 05:02:41;;;;;;;1999.90;999.90;;;13.60;99.90;;;;;;6727382;88;20989;-79
2023/07/07 05:12:41;;;;;;;1999.90;999.90;;;13.70;99.90;;;;;;6722062;88;20208;-78
2023/07/07 05:22:42;;;;;;;1999.90;999.90;;;14.10;99.90;;;;;;6722978;88;20197;-78
2023/07/07 05:32:42;;;;;;;1999.90;999.90;;;14.40;99.90;;;;;;6717076;88;20213;-78
2023/07/07 05:42:43;;;;;;;1999.90;999.90;;;14.60;99.90;;;;;;6717432;88;20214;-79
2023/07/07 05:52:43;;;;;;;1999.90;999.90;;;14.90;99.90;;;;;;6718333;88;20186;-79
2023/07/07 06:02:44;;;;;;;1999.90;999.90;;;15.20;99.90;;;;;;6721290;88;20398;-78
2023/07/07 06:12:45;;;;;;;1999.90;999.90;;;15.90;99.90;;;;;;6721195;88;20251;-79
2023/07/07 06:22:45;;;;;;;1999.90;999.90;;;16.90;99.90;;;;;;6713681;88;20249;-80
2023/07/07 06:32:46;;;;;;;1999.90;999.90;;;17.70;99.90;;;;;;6724627;88;20203;-79
2023/07/07 06:42:48;;;;;;;1999.90;999.90;;;18.30;99.90;;;;;;6716994;88;20187;-78
2023/07/07 06:52:48;;;;;;;1999.90;999.90;;;18.70;99.90;;;;;;6715687;88;20210;-78
2023/07/07 07:02:49;;;;;;;1999.90;999.90;;;19.40;99.90;;;;;;6718207;88;21264;-79
2023/07/07 07:12:49;;;;;;;1999.90;999.90;;;20.30;99.90;;;;;;6718302;88;20345;-78
2023/07/07 07:22:50;;;;;;;1999.90;999.90;;;21.00;99.90;;;;;;6720315;88;20202;-79
2023/07/07 07:32:51;;;;;;;1999.90;999.90;;;21.50;99.90;;;;;;6721372;88;20312;-78
2023/07/07 07:42:52;;;;;;;1999.90;999.90;;;22.50;99.90;;;;;;6722384;88;20287;-78
2023/07/07 07:52:52;;;;;;;1999.90;999.90;;;23.00;97.60;;;;;;6721618;88;20202;-78
2023/07/07 08:02:53;;;;;;;1999.90;999.90;;;23.10;96.80;;;;;;6725773;88;20206;-80
2023/07/07 08:12:53;;;;;;;1999.90;999.90;;;23.60;95.70;;;;;;6720050;88;20242;-78
2023/07/07 08:22:54;;;;;;;1999.90;999.90;;;24.40;94.90;;;;;;6710054;88;20219;-79
2023/07/07 08:32:54;;;;;;;1999.90;999.90;;;25.40;93.10;;;;;;6714746;88;20209;-78
2023/07/07 08:42:55;;;;;;;1999.90;999.90;;;25.20;91.50;;;;;;6716442;88;20222;-78
2023/07/07 08:53:22;;;;;;;1999.90;999.90;;;26.20;91.40;;;;;;6716807;88;20278;-78
2023/07/07 09:04:03;;;;;;;1999.90;999.90;;;26.80;85.80;;;;;;6721876;88;20181;-78
2023/07/07 09:14:06;;;;;;;1999.90;999.90;;;26.90;84.00;;;;;;6720183;88;20309;-79
2023/07/07 09:24:24;;;;;;;1999.90;999.90;;;27.30;80.20;;;;;;6719529;88;20197;-78
2023/07/07 09:34:25;;;;;;;1999.90;999.90;;;27.40;79.10;;;;;;6720054;88;20210;-78
2023/07/07 09:44:32;;;;;;;1999.90;999.90;;;27.60;78.20;;;;;;6715147;88;20677;-78
2023/07/07 09:54:34;;;;;;;1999.90;999.90;;;28.80;73.10;;;;;;6716981;88;20194;-79
2023/07/07 10:04:35;;;;;;;1999.90;999.90;;;28.90;67.70;;;;;;6713124;88;20714;-78
2023/07/07 10:14:37;;;;;;;1999.90;999.90;;;29.40;68.20;;;;;;6717550;88;20185;-78
2023/07/07 10:24:37;;;;;;;1999.90;999.90;;;29.40;67.20;;;;;;6713375;77;20320;-78
2023/07/07 10:34:43;;;;;;;1999.90;999.90;;;29.00;68.30;;;;;;6711744;88;20216;-78
2023/07/07 10:44:45;;;;;;;1999.90;999.90;;;30.10;66.50;;;;;;6715536;88;20226;-78
2023/07/07 10:54:57;;;;;;;1999.90;999.90;;;31.70;65.00;;;;;;6712003;88;20283;-77
2023/07/07 11:05:25;;;;;;;1999.90;999.90;;;31.80;65.30;;;;;;6698215;88;20610;-78
2023/07/07 11:15:43;;;;;;;1999.90;999.90;;;30.70;62.10;;;;;;6713520;88;20210;-77
2023/07/07 11:26:19;;;;;;;1999.90;999.90;;;31.60;61.70;;;;;;6712027;88;20232;-78
2023/07/07 11:36:53;;;;;;;1999.90;999.90;;;32.10;59.90;;;;;;6714665;88;20240;-78
2023/07/07 11:47:37;;;;;;;1999.90;999.90;;;30.80;57.10;;;;;;6697001;88;20551;-78
2023/07/07 11:58:16;;;;;;;1999.90;999.90;;;32.80;56.00;;;;;;6714435;88;20309;-78
2023/07/07 12:08:21;;;;;;;1999.90;999.90;;;32.30;56.60;;;;;;6709853;88;20238;-78
2023/07/07 12:18:34;;;;;;;1999.90;999.90;;;31.60;56.60;;;;;;6711915;88;20190;-78
2023/07/07 12:28:37;;;;;;;1999.90;999.90;;;31.40;55.60;;;;;;6713431;88;20222;-78
2023/07/07 12:38:38;;;;;;;1999.90;999.90;;;33.40;54.90;;;;;;6714951;88;20193;-78
2023/07/07 12:48:38;;;;;;;1999.90;999.90;;;32.70;54.70;;;;;;6708356;88;20317;-78
2023/07/07 12:58:39;;;;;;;1999.90;999.90;;;32.70;51.50;;;;;;6695735;88;20202;-78
2023/07/07 13:08:41;;;;;;;1999.90;999.90;;;34.40;52.30;;;;;;6699235;88;20218;-78
2023/07/07 13:18:41;;;;;;;1999.90;999.90;;;33.50;53.50;;;;;;6712196;88;20185;-78
2023/07/07 13:28:42;;;;;;;1999.90;999.90;;;32.90;54.90;;;;;;6714943;88;20360;-77
2023/07/07 13:38:46;;;;;;;1999.90;999.90;;;32.90;52.70;;;;;;6706497;88;20248;-77
2023/07/07 13:48:50;;;;;;;1999.90;999.90;;;33.50;52.20;;;;;;6716470;88;20254;-78
2023/07/07 13:58:52;;;;;;;1999.90;999.90;;;35.70;51.50;;;;;;6710394;88;20328;-78
2023/07/07 14:08:53;;;;;;;1999.90;999.90;;;34.70;53.40;;;;;;6712736;88;20227;-78
2023/07/07 14:19:21;;;;;;;1999.90;999.90;;;35.40;51.70;;;;;;6709507;88;20287;-78
2023/07/07 14:29:29;;;;;;;1999.90;999.90;;;35.90;51.30;;;;;;6714687;88;20611;-78
2023/07/07 14:39:30;;;;;;;1999.90;999.90;;;36.40;51.30;;;;;;6714189;88;20338;-78
2023/07/07 14:49:30;;;;;;;1999.90;999.90;;;34.10;52.40;;;;;;6716858;88;20625;-77
2023/07/07 14:59:32;;;;;;;;;;;34.80;52.70;;;;;;6717177;88;20804;-76
2023/07/07 15:09:32;;;;;;;1999.90;999.90;;;34.80;52.50;;;;;;6713869;88;20517;-77
2023/07/07 15:19:33;;;;;;;1999.90;999.90;;;33.30;52.00;;;;;;6716832;88;20383;-77
2023/07/07 15:29:34;;;;;;;1999.90;999.90;;;33.40;52.20;;;;;;6711514;88;20201;-78
2023/07/07 15:39:34;;;;;;;1999.90;999.90;;;33.40;51.50;;;;;;6710794;88;20241;-77
2023/07/07 15:49:35;;;;;;;1999.90;999.90;;;34.00;50.50;;;;;;6723905;88;20751;-77
2023/07/07 15:59:37;;;;;;;1999.90;999.90;;;34.90;50.80;;;;;;6719832;88;20650;-77
2023/07/07 16:09:38;;;;;;;1999.90;999.90;;;34.50;50.60;;;;;;6718343;88;20228;-79
2023/07/07 16:19:39;;;;;;;1999.90;999.90;;;33.90;50.00;;;;;;6722566;77;20228;-77
2023/07/07 16:29:41;;;;;;;1999.90;999.90;;;34.20;50.40;;;;;;6699731;88;20175;-78
2023/07/07 16:39:42;;;;;;;1999.90;999.90;;;33.80;53.40;;;;;;6687055;88;20281;-78
2023/07/07 16:49:43;;;;;;;1999.90;999.90;;;33.40;53.70;;;;;;6681671;88;20179;-77
2023/07/07 16:59:43;;;;;;;1999.90;999.90;;;32.30;53.50;;;;;;6684189;88;20390;-78
2023/07/07 17:09:44;;;;;;;1999.90;999.90;;;31.30;53.70;;;;;;6685825;88;20437;-78
2023/07/07 17:19:44;;;;;;;1999.90;999.90;;;31.60;54.00;;;;;;6694751;88;20323;-79
2023/07/07 17:29:45;;;;;;;1999.90;999.90;;;31.40;54.00;;;;;;6683313;88;20595;-78
2023/07/07 17:39:45;;;;;;;1999.90;999.90;;;31.80;54.80;;;;;;6685882;88;20518;-77
2023/07/07 17:49:46;;;;;;;1999.90;999.90;;;31.70;54.80;;;;;;6683860;88;20233;-78
2023/07/07 17:59:46;;;;;;;1999.90;999.90;;;31.30;54.80;;;;;;6685407;88;20230;-77
2023/07/07 18:09:47;;;;;;;1999.90;999.90;;;31.20;55.40;;;;;;6691108;88;20184;-78
2023/07/07 18:19:48;;;;;;;1999.90;999.90;;;30.70;55.40;;;;;;6688103;88;20231;-77
2023/07/07 18:29:49;;;;;;;1999.90;999.90;;;30.10;57.30;;;;;;6682455;88;20222;-77
2023/07/07 18:39:49;;;;;;;1999.90;999.90;;;29.70;58.10;;;;;;6681261;88;21235;-77
2023/07/07 18:49:50;;;;;;;1999.90;999.90;;;29.40;58.80;;;;;;6681970;88;20664;-77
2023/07/07 18:59:50;;;;;;;1999.90;999.90;;;29.00;59.40;;;;;;6688379;88;20191;-77
2023/07/07 19:09:52;;;;;;;1999.90;999.90;;;28.50;60.20;;;;;;6690638;88;20307;-78
2023/07/07 19:19:53;;;;;;;1999.90;999.90;;;28.10;62.10;;;;;;6688185;88;20590;-77
2023/07/07 19:29:54;;;;;;;1999.90;999.90;;;27.50;62.80;;;;;;6686307;88;20191;-77
2023/07/07 19:39:55;;;;;;;1999.90;999.90;;;27.10;63.20;;;;;;6686378;88;20180;-77
2023/07/07 19:49:55;;;;;;;1999.90;999.90;;;26.60;64.10;;;;;;6685786;88;20231;-78
2023/07/07 19:59:57;;;;;;;1999.90;999.90;;;26.50;64.00;;;;;;6688345;88;20199;-77
2023/07/07 20:09:58;;;;;;;1999.90;999.90;;;25.90;64.70;;;;;;6687398;88;20195;-78
2023/07/07 20:19:58;;;;;;;1999.90;999.90;;;25.60;65.70;;;;;;6694773;88;20742;-78
2023/07/07 20:29:59;;;;;;;1999.90;999.90;;;25.20;66.40;;;;;;6687974;88;20669;-79
2023/07/07 20:40:00;;;;;;;1999.90;999.90;;;25.00;68.20;;;;;;6687402;88;20251;-78
2023/07/07 20:50:00;;;;;;;1999.90;999.90;;;24.70;69.70;;;;;;6690453;88;20281;-78
2023/07/07 21:00:01;;;;;;;1999.90;999.90;;;24.20;71.40;;;;;;6694931;88;20191;-78
2023/07/07 21:10:23;;;;;;;1999.90;999.90;;;23.80;72.60;;;;;;6673464;88;20776;-77
2023/07/07 21:20:29;;;;;;;1999.90;999.90;;;23.60;74.80;;;;;;6671276;89;20191;-77
2023/07/07 21:30:30;;;;;;;1999.90;999.90;;;23.20;73.60;;;;;;6677549;89;20278;-79
2023/07/07 21:40:30;;;;;;;1999.90;999.90;;;23.00;76.70;;;;;;6672755;89;20194;-78
2023/07/07 21:50:31;;;;;;;1999.90;999.90;;;22.80;76.40;;;;;;6672464;89;20194;-78
2023/07/07 22:00:33;;;;;;;1999.90;999.90;;;22.70;79.40;;;;;;6669770;89;20217;-78
2023/07/07 22:10:37;;;;;;;1999.90;999.90;;;22.50;79.30;;;;;;6673551;89;20178;-79
2023/07/07 22:20:58;;;;;;;1999.90;999.90;;;22.60;80.30;;;;;;6674986;89;20212;-80
2023/07/07 22:31:00;;;;;;;1999.90;999.90;;;22.70;79.00;;;;;;6681641;89;20722;-79
2023/07/07 22:41:02;;;;;;;1999.90;999.90;;;22.60;80.00;;;;;;6686652;89;20888;-79
2023/07/07 22:51:09;;;;;;;1999.90;999.90;;;22.30;82.40;;;;;;6681547;89;20192;-80
2023/07/07 23:01:10;;;;;;;1999.90;999.90;;;22.00;84.40;;;;;;6683326;89;20243;-80
2023/07/07 23:11:12;;;;;;;1999.90;999.90;;;21.70;92.40;;;;;;6667594;89;20199;-79
2023/07/07 23:21:15;;;;;;;1999.90;999.90;;;21.70;95.10;;;;;;6682665;89;20209;-78
2023/07/07 23:31:17;;;;;;;1999.90;999.90;;;21.60;92.90;;;;;;6678190;88;20183;-77
2023/07/07 23:41:17;;;;;;;1999.90;999.90;;;21.40;94.60;;;;;;6681424;88;20331;-78
2023/07/07 23:51:18;;;;;;;1999.90;999.90;;;21.00;95.30;;;;;;6692333;88;20355;-79
